createdAt,value
2022-08-24T00:01:07.729Z,49.84
2022-08-24T00:03:35.040Z,50.48
2022-08-24T00:06:03.134Z,49.46
2022-08-24T00:08:30.400Z,49.95
2022-08-24T00:10:56.624Z,49.00
2022-08-24T00:13:22.628Z,49.72
2022-08-24T00:15:49.731Z,48.92
2022-08-24T00:18:15.844Z,48.35
2022-08-24T00:20:45.096Z,48.28
2022-08-24T00:23:11.363Z,48.63
2022-08-24T00:25:37.295Z,48.73
2022-08-24T00:28:05.097Z,48.05
2022-08-24T00:30:31.669Z,48.33
2022-08-24T00:32:57.555Z,47.82
2022-08-24T00:35:23.748Z,47.74
2022-08-24T00:37:50.813Z,47.73
2022-08-24T00:40:35.551Z,48.07
2022-08-24T00:43:03.589Z,48.22
2022-08-24T00:46:02.889Z,49.08
2022-08-24T00:48:32.972Z,49.61
2022-08-24T00:51:35.339Z,49.88
2022-08-24T00:54:12.971Z,50.17
2022-08-24T00:56:48.060Z,50.36
2022-08-24T00:59:21.587Z,49.96
2022-08-24T01:01:50.600Z,49.72
2022-08-24T01:04:22.138Z,49.91
2022-08-24T01:06:49.128Z,49.67
2022-08-24T01:09:16.044Z,50.42
2022-08-24T01:11:43.114Z,50.08
2022-08-24T01:14:09.130Z,50.18
2022-08-24T01:16:54.244Z,49.84
2022-08-24T01:19:34.638Z,49.90
2022-08-24T01:22:25.352Z,49.37
2022-08-24T01:24:51.884Z,49.25
2022-08-24T01:27:18.649Z,48.94
2022-08-24T01:29:48.052Z,49.05
2022-08-24T01:32:14.067Z,49.08
2022-08-24T01:34:39.973Z,48.85
2022-08-24T01:37:10.044Z,48.45
2022-08-24T01:39:40.164Z,47.92
2022-08-24T01:42:06.602Z,47.84
2022-08-24T01:44:34.159Z,47.84
2022-08-24T01:47:02.118Z,47.51
2022-08-24T01:49:35.398Z,47.60
2022-08-24T01:52:02.424Z,47.75
2022-08-24T01:54:28.827Z,47.60
2022-08-24T01:56:54.619Z,47.13
2022-08-24T01:59:21.593Z,47.51
2022-08-24T02:02:02.444Z,47.19
2022-08-24T02:04:28.321Z,47.67
2022-08-24T02:06:54.178Z,47.90
2022-08-24T02:09:20.042Z,47.90
2022-08-24T02:11:47.707Z,48.29
2022-08-24T02:14:14.615Z,48.32
2022-08-24T02:16:40.703Z,48.08
2022-08-24T02:19:06.571Z,48.43
2022-08-24T02:21:32.788Z,48.58
2022-08-24T02:23:59.234Z,48.01
2022-08-24T02:26:25.893Z,48.61
2022-08-24T02:28:58.033Z,48.63
2022-08-24T02:31:29.658Z,48.77
2022-08-24T02:33:55.484Z,48.46
2022-08-24T02:36:26.281Z,48.57
2022-08-24T02:38:54.241Z,48.92
2022-08-24T02:41:21.251Z,48.80
2022-08-24T02:43:47.595Z,48.92
2022-08-24T02:46:22.267Z,49.16
2022-08-24T02:48:56.526Z,49.45
2022-08-24T02:51:42.217Z,49.11
2022-08-24T02:54:11.479Z,49.07
2022-08-24T02:56:37.337Z,49.59
2022-08-24T02:59:03.493Z,49.60
2022-08-24T03:01:30.572Z,49.46
2022-08-24T03:03:57.026Z,49.41
2022-08-24T03:06:22.863Z,49.49
2022-08-24T03:08:53.324Z,49.79
2022-08-24T03:11:27.372Z,50.59
2022-08-24T03:13:55.458Z,50.38
2022-08-24T03:16:21.522Z,50.94
2022-08-24T03:18:47.368Z,50.86
2022-08-24T03:21:14.719Z,50.44
2022-08-24T03:23:40.526Z,50.07
2022-08-24T03:26:06.384Z,50.09
2022-08-24T03:28:32.212Z,50.41
2022-08-24T03:30:59.174Z,50.54
2022-08-24T03:33:25.482Z,51.10
2022-08-24T03:35:52.612Z,51.18
2022-08-24T03:38:18.827Z,51.60
2022-08-24T03:40:44.691Z,52.16
2022-08-24T03:43:30.548Z,52.84
2022-08-24T03:45:56.397Z,53.30
2022-08-24T03:48:23.562Z,54.14
2022-08-24T03:50:50.344Z,54.72
2022-08-24T03:53:16.367Z,55.08
2022-08-24T03:55:42.170Z,54.91
2022-08-24T03:58:08.006Z,55.13
2022-08-24T04:00:33.851Z,55.01
2022-08-24T04:02:59.781Z,54.66
2022-08-24T04:05:25.609Z,55.28
2022-08-24T04:07:51.568Z,55.31
2022-08-24T04:10:17.388Z,55.69
2022-08-24T04:12:43.188Z,56.21
2022-08-24T04:15:09.711Z,56.03
2022-08-24T04:17:35.541Z,55.86
2022-08-24T04:20:02.257Z,55.17
2022-08-24T04:22:31.081Z,54.77
2022-08-24T04:24:57.080Z,54.21
2022-08-24T04:27:23.228Z,54.51
2022-08-24T04:29:49.156Z,54.56
2022-08-24T04:32:15.029Z,54.92
2022-08-24T04:34:44.869Z,55.18
2022-08-24T04:37:11.758Z,55.50
2022-08-24T04:39:38.381Z,55.32
2022-08-24T04:42:05.899Z,55.58
2022-08-24T04:44:31.875Z,56.32
2022-08-24T04:46:57.746Z,56.48
2022-08-24T04:49:23.613Z,56.20
2022-08-24T04:51:49.436Z,56.32
2022-08-24T04:54:16.004Z,56.49
2022-08-24T04:56:41.868Z,56.02
2022-08-24T04:59:08.450Z,56.49
2022-08-24T05:01:34.563Z,56.58
2022-08-24T05:04:00.782Z,56.62
2022-08-24T05:06:30.330Z,56.77
2022-08-24T05:08:57.001Z,56.68
2022-08-24T05:11:23.643Z,56.26
2022-08-24T05:13:54.581Z,57.11
2022-08-24T05:16:21.414Z,56.72
2022-08-24T05:18:48.298Z,57.22
2022-08-24T05:21:17.188Z,57.45
2022-08-24T05:23:45.137Z,57.51
2022-08-24T05:26:24.307Z,55.83
2022-08-24T05:28:54.551Z,55.14
2022-08-24T05:31:23.612Z,54.75
2022-08-24T05:33:50.359Z,54.51
2022-08-24T05:36:33.999Z,54.58
2022-08-24T05:39:02.508Z,53.93
2022-08-24T05:41:28.876Z,53.91
2022-08-24T05:43:54.986Z,54.72
2022-08-24T05:46:21.062Z,53.87
2022-08-24T05:48:52.686Z,54.60
2022-08-24T05:51:20.300Z,54.64
2022-08-24T05:53:46.330Z,54.78
2022-08-24T05:56:15.102Z,55.10
2022-08-24T05:58:41.537Z,54.96
2022-08-24T06:01:07.278Z,55.07
2022-08-24T06:03:33.107Z,54.67
2022-08-24T06:06:01.213Z,54.65
2022-08-24T06:08:27.077Z,54.61
2022-08-24T06:10:52.926Z,54.93
2022-08-24T06:13:18.758Z,54.60
2022-08-24T06:15:54.920Z,54.39
2022-08-24T06:18:30.737Z,54.24
2022-08-24T06:20:57.757Z,54.13
2022-08-24T06:23:23.868Z,53.65
2022-08-24T06:26:12.026Z,53.31
2022-08-24T06:28:40.546Z,53.22
2022-08-24T06:31:09.171Z,52.70
2022-08-24T06:33:35.198Z,52.57
2022-08-24T06:36:01.229Z,52.59
2022-08-24T06:38:27.107Z,52.71
2022-08-24T06:40:53.417Z,52.79
2022-08-24T06:43:19.483Z,52.62
2022-08-24T06:45:45.846Z,52.39
2022-08-24T06:48:11.684Z,52.55
2022-08-24T06:50:38.699Z,52.37
2022-08-24T06:53:05.039Z,52.30
2022-08-24T06:55:31.072Z,51.86
2022-08-24T06:57:57.693Z,52.33
2022-08-24T07:00:24.462Z,51.94
2022-08-24T07:02:51.109Z,51.46
2022-08-24T07:05:17.509Z,51.91
2022-08-24T07:07:43.530Z,51.70
2022-08-24T07:10:09.936Z,51.91
2022-08-24T07:12:36.473Z,52.27
2022-08-24T07:15:03.982Z,52.04
2022-08-24T07:17:35.149Z,51.18
2022-08-24T07:20:01.559Z,51.15
2022-08-24T07:22:27.554Z,51.01
2022-08-24T07:24:53.577Z,51.25
2022-08-24T07:27:19.369Z,51.61
2022-08-24T07:29:50.775Z,51.59
2022-08-24T07:32:22.627Z,51.16
2022-08-24T07:34:49.882Z,51.06
2022-08-24T07:37:16.468Z,50.96
2022-08-24T07:39:42.463Z,50.68
2022-08-24T07:42:13.373Z,50.44
2022-08-24T07:44:41.885Z,50.31
2022-08-24T07:47:34.353Z,48.96
2022-08-24T07:49:53.584Z,48.86
2022-08-24T07:52:19.458Z,49.40
2022-08-24T07:54:45.397Z,47.42
2022-08-24T07:57:11.204Z,48.14
2022-08-24T07:59:37.131Z,47.90
2022-08-24T08:02:03.237Z,48.20
2022-08-24T08:04:31.011Z,47.36
2022-08-24T08:06:57.308Z,46.82
2022-08-24T08:09:23.317Z,46.57
2022-08-24T08:11:49.092Z,46.73
2022-08-24T08:14:14.932Z,46.28
2022-08-24T08:16:41.645Z,46.54
2022-08-24T08:19:11.057Z,46.20
2022-08-24T08:22:13.993Z,44.87
2022-08-24T08:24:44.301Z,44.99
2022-08-24T08:27:12.132Z,44.93
2022-08-24T08:29:39.829Z,44.70
2022-08-24T08:32:07.159Z,44.91
2022-08-24T08:34:34.200Z,45.30
2022-08-24T08:37:00.166Z,44.46
2022-08-24T08:39:27.718Z,44.40
2022-08-24T08:42:38.092Z,44.01
2022-08-24T08:45:29.302Z,44.38
2022-08-24T08:48:17.201Z,43.97
2022-08-24T08:51:18.514Z,43.92
2022-08-24T08:54:02.803Z,44.08
2022-08-24T08:56:59.668Z,44.28
2022-08-24T08:59:48.033Z,44.04
2022-08-24T09:02:25.582Z,43.46
2022-08-24T09:05:11.842Z,43.22
2022-08-24T09:07:40.879Z,43.10
2022-08-24T09:10:34.716Z,42.85
2022-08-24T09:13:22.008Z,42.78
2022-08-24T09:16:10.883Z,42.87
2022-08-24T09:18:54.275Z,41.89
2022-08-24T09:21:33.852Z,41.74
2022-08-24T09:24:35.166Z,41.45
2022-08-24T09:27:09.608Z,40.79
2022-08-24T09:29:56.000Z,40.86
2022-08-24T09:32:34.977Z,40.49
2022-08-24T09:35:07.850Z,41.03
2022-08-24T09:38:01.271Z,40.37
2022-08-24T09:40:35.756Z,40.04
2022-08-24T09:43:28.115Z,39.67
2022-08-24T09:46:14.148Z,38.90
2022-08-24T09:49:15.006Z,39.03
2022-08-24T09:52:02.516Z,39.41
2022-08-24T09:54:59.380Z,38.99
2022-08-24T09:57:50.320Z,39.33
2022-08-24T10:00:23.388Z,39.17
2022-08-24T10:03:33.955Z,38.08
2022-08-24T10:06:08.569Z,37.20
2022-08-24T10:08:44.090Z,36.55
2022-08-24T10:11:24.937Z,35.83
2022-08-24T10:14:18.261Z,35.29
2022-08-24T10:16:57.301Z,35.57
2022-08-24T10:19:41.505Z,34.74
2022-08-24T10:22:26.941Z,34.78
2022-08-24T10:24:52.955Z,34.40
2022-08-24T10:27:35.187Z,33.13
2022-08-24T10:30:27.918Z,32.81
2022-08-24T10:33:16.865Z,32.48
2022-08-24T10:36:07.825Z,32.25
2022-08-24T10:38:55.250Z,32.98
2022-08-24T10:41:39.485Z,34.15
2022-08-24T10:44:14.401Z,33.82
2022-08-24T10:46:54.445Z,32.82
2022-08-24T10:49:39.468Z,31.96
2022-08-24T10:52:14.255Z,31.17
2022-08-24T10:54:40.818Z,31.10
2022-08-24T10:57:34.464Z,30.53
2022-08-24T11:00:22.749Z,30.03
2022-08-24T11:03:04.137Z,30.00
2022-08-24T11:05:39.522Z,30.00
2022-08-24T11:08:06.949Z,30.10
2022-08-24T11:10:37.087Z,29.92
2022-08-24T11:13:26.025Z,29.47
2022-08-24T11:15:55.262Z,30.70
2022-08-24T11:18:22.381Z,31.35
2022-08-24T11:20:52.237Z,31.54
2022-08-24T11:23:21.769Z,32.00
2022-08-24T11:26:10.959Z,32.78
2022-08-24T11:28:40.937Z,32.73
2022-08-24T11:31:35.462Z,32.14
2022-08-24T11:34:07.440Z,30.23
2022-08-24T11:36:37.143Z,29.20
2022-08-24T11:39:26.841Z,27.73
2022-08-24T11:42:02.435Z,27.35
2022-08-24T11:45:11.850Z,27.88
2022-08-24T11:48:19.306Z,28.85
2022-08-24T11:50:59.984Z,29.90
2022-08-24T11:56:21.437Z,29.48
2022-08-24T11:58:59.686Z,29.13
2022-08-24T12:01:44.471Z,29.54
2022-08-24T12:04:39.706Z,29.79
2022-08-24T12:07:38.720Z,30.28
2022-08-24T12:10:04.475Z,31.07
2022-08-24T12:13:11.570Z,31.21
2022-08-24T12:15:37.391Z,31.13
2022-08-24T12:18:17.841Z,31.55
2022-08-24T12:20:48.037Z,31.17
2022-08-24T12:23:24.024Z,31.86
2022-08-24T12:26:01.580Z,32.15
2022-08-24T12:28:33.811Z,31.07
2022-08-24T12:31:09.000Z,29.85
2022-08-24T12:33:37.454Z,29.81
2022-08-24T12:36:14.323Z,30.11
2022-08-24T12:38:47.306Z,30.36
2022-08-24T12:41:37.160Z,30.75
2022-08-24T12:44:11.980Z,29.89
2022-08-24T12:46:38.949Z,28.76
2022-08-24T12:49:20.520Z,27.82
2022-08-24T12:51:50.870Z,27.27
2022-08-24T12:54:34.780Z,27.11
2022-08-24T12:57:25.359Z,28.38
2022-08-24T12:59:56.375Z,28.63
2022-08-24T13:02:22.179Z,28.60
2022-08-24T13:04:48.014Z,28.26
2022-08-24T13:07:22.878Z,28.13
2022-08-24T13:10:01.736Z,27.83
2022-08-24T13:12:46.116Z,28.84
2022-08-24T13:15:21.267Z,28.88
2022-08-24T13:17:48.847Z,29.55
2022-08-24T13:20:48.721Z,30.23
2022-08-24T13:23:20.980Z,29.99
2022-08-24T13:25:46.706Z,30.27
2022-08-24T13:28:21.926Z,30.01
2022-08-24T13:31:23.592Z,30.30
2022-08-24T13:33:59.820Z,30.82
2022-08-24T13:36:38.181Z,31.17
2022-08-24T13:39:13.640Z,31.25
2022-08-24T13:41:54.439Z,31.11
2022-08-24T13:44:20.460Z,31.18
2022-08-24T13:46:50.174Z,31.51
2022-08-24T13:49:44.027Z,31.06
2022-08-24T13:52:21.654Z,31.14
2022-08-24T13:55:05.838Z,31.43
2022-08-24T13:57:45.569Z,31.36
2022-08-24T14:00:30.743Z,30.81
2022-08-24T14:03:18.716Z,30.71
2022-08-24T14:05:50.241Z,31.30
2022-08-24T14:08:44.590Z,30.69
2022-08-24T14:11:15.811Z,30.69
2022-08-24T14:13:50.544Z,29.93
2022-08-24T14:16:43.837Z,29.75
2022-08-24T14:19:19.209Z,29.27
2022-08-24T14:22:10.826Z,28.33
2022-08-24T14:24:43.817Z,27.19
2022-08-24T14:27:46.762Z,26.56
2022-08-24T14:30:18.631Z,26.23
2022-08-24T14:32:59.621Z,25.74
2022-08-24T14:35:40.576Z,25.29
2022-08-24T14:38:24.480Z,25.35
2022-08-24T14:41:07.313Z,24.82
2022-08-24T14:44:09.644Z,25.29
2022-08-24T14:46:44.778Z,26.25
2022-08-24T14:49:15.905Z,27.67
2022-08-24T14:52:16.932Z,28.20
2022-08-24T14:55:19.973Z,27.98
2022-08-24T14:58:06.314Z,28.75
2022-08-24T15:01:04.179Z,28.66
2022-08-24T15:04:00.576Z,28.49
2022-08-24T15:06:29.192Z,28.31
2022-08-24T15:09:29.564Z,28.41
2022-08-24T15:12:19.381Z,28.25
2022-08-24T15:14:57.249Z,28.29
2022-08-24T15:17:35.064Z,28.55
2022-08-24T15:20:14.729Z,28.73
2022-08-24T15:22:56.129Z,28.78
2022-08-24T15:25:44.511Z,29.25
2022-08-24T15:28:13.161Z,28.76
2022-08-24T15:30:41.297Z,28.60
2022-08-24T15:33:18.445Z,28.64
2022-08-24T15:35:47.845Z,29.72
2022-08-24T15:38:19.759Z,30.31
2022-08-24T15:40:48.657Z,30.20
2022-08-24T15:43:14.751Z,29.82
2022-08-24T15:45:50.456Z,30.18
2022-08-24T15:48:20.629Z,30.29
2022-08-24T15:50:48.038Z,30.47
2022-08-24T15:53:32.625Z,30.55
2022-08-24T15:56:35.003Z,31.26
2022-08-24T15:59:10.998Z,31.00
2022-08-24T16:02:09.529Z,31.03
2022-08-24T16:04:40.408Z,30.90
2022-08-24T16:07:06.766Z,31.19
2022-08-24T16:09:37.001Z,31.49
2022-08-24T16:12:13.890Z,32.02
2022-08-24T16:14:55.760Z,31.44
2022-08-24T16:17:32.647Z,31.32
2022-08-24T16:20:04.181Z,31.67
2022-08-24T16:22:38.159Z,31.55
2022-08-24T16:25:28.613Z,31.80
2022-08-24T16:28:07.862Z,31.78
2022-08-24T16:30:49.128Z,32.30
2022-08-24T16:33:36.699Z,32.03
2022-08-24T16:36:17.013Z,31.68
2022-08-24T16:38:48.648Z,31.78
2022-08-24T16:41:18.093Z,31.82
2022-08-24T16:43:45.128Z,31.84
2022-08-24T16:46:12.461Z,32.08
2022-08-24T16:48:39.713Z,31.96
2022-08-24T16:51:05.686Z,31.81
2022-08-24T16:53:31.733Z,32.27
2022-08-24T16:55:58.451Z,31.82
2022-08-24T16:58:29.353Z,32.21
2022-08-24T17:00:55.361Z,32.91
2022-08-24T17:03:21.299Z,32.94
2022-08-24T17:05:47.410Z,32.48
2022-08-24T17:08:13.224Z,33.18
2022-08-24T17:10:39.631Z,33.38
2022-08-24T17:13:05.640Z,33.19
2022-08-24T17:15:31.763Z,33.16
2022-08-24T17:18:07.896Z,32.88
2022-08-24T17:20:33.875Z,32.91
2022-08-24T17:22:59.940Z,33.13
2022-08-24T17:25:27.425Z,32.94
2022-08-24T17:27:56.288Z,33.33
2022-08-24T17:30:24.316Z,33.23
2022-08-24T17:32:51.792Z,33.63
2022-08-24T17:35:20.089Z,33.81
2022-08-24T17:37:47.095Z,34.37
2022-08-24T17:40:16.173Z,34.28
2022-08-24T17:42:57.489Z,34.03
2022-08-24T17:45:23.570Z,34.27
2022-08-24T17:47:51.676Z,34.37
2022-08-24T17:50:19.877Z,34.99
2022-08-24T17:52:46.448Z,35.70
2022-08-24T17:55:14.179Z,35.67
2022-08-24T17:57:40.575Z,36.10
2022-08-24T18:00:09.953Z,36.65
2022-08-24T18:02:35.974Z,36.99
2022-08-24T18:05:02.997Z,37.25
2022-08-24T18:07:49.475Z,37.45
2022-08-24T18:10:20.185Z,37.48
2022-08-24T18:12:46.213Z,37.68
2022-08-24T18:15:12.953Z,37.97
2022-08-24T18:17:41.367Z,37.86
2022-08-24T18:20:10.128Z,38.18
2022-08-24T18:22:36.150Z,38.25
2022-08-24T18:25:02.053Z,38.64
2022-08-24T18:27:31.713Z,38.54
2022-08-24T18:30:03.134Z,38.82
2022-08-24T18:32:31.007Z,38.28
2022-08-24T18:34:58.214Z,38.39
2022-08-24T18:37:24.288Z,38.41
2022-08-24T18:39:50.615Z,38.49
2022-08-24T18:42:17.487Z,38.83
2022-08-24T18:44:43.561Z,38.63
2022-08-24T18:47:09.690Z,38.89
2022-08-24T18:49:35.783Z,38.78
2022-08-24T18:52:02.437Z,38.75
2022-08-24T18:54:39.026Z,39.44
2022-08-24T18:57:06.364Z,39.56
2022-08-24T18:59:34.676Z,39.29
2022-08-24T19:02:26.508Z,39.30
2022-08-24T19:04:52.543Z,40.46
2022-08-24T19:07:18.463Z,40.29
2022-08-24T19:09:44.306Z,41.43
2022-08-24T19:12:10.705Z,40.72
2022-08-24T19:14:37.287Z,40.02
2022-08-24T19:17:04.644Z,40.21
2022-08-24T19:19:30.500Z,39.87
2022-08-24T19:21:56.399Z,40.26
2022-08-24T19:24:25.788Z,40.07
2022-08-24T19:26:52.473Z,39.71
2022-08-24T19:29:33.254Z,39.25
2022-08-24T19:32:06.560Z,39.92
2022-08-24T19:34:46.244Z,39.83
2022-08-24T19:37:12.253Z,39.74
2022-08-24T19:39:38.311Z,39.56
2022-08-24T19:42:04.760Z,40.37
2022-08-24T19:44:52.029Z,41.28
2022-08-24T19:47:18.018Z,41.74
2022-08-24T19:49:47.338Z,42.00
2022-08-24T19:52:13.431Z,42.18
2022-08-24T19:54:44.206Z,41.18
2022-08-24T19:57:47.085Z,40.92
2022-08-24T20:00:25.111Z,40.19
2022-08-24T20:02:54.219Z,39.47
2022-08-24T20:05:23.789Z,40.11
2022-08-24T20:07:50.953Z,40.18
2022-08-24T20:10:20.058Z,41.14
2022-08-24T20:12:45.866Z,40.86
2022-08-24T20:15:12.477Z,40.19
2022-08-24T20:17:38.287Z,40.51
2022-08-24T20:20:06.369Z,40.88
2022-08-24T20:22:32.267Z,40.78
2022-08-24T20:24:58.221Z,40.83
2022-08-24T20:27:26.962Z,40.85
2022-08-24T20:29:54.397Z,41.51
2022-08-24T20:32:21.094Z,41.62
2022-08-24T20:34:47.621Z,42.17
2022-08-24T20:37:20.793Z,41.43
2022-08-24T20:39:46.898Z,42.31
2022-08-24T20:42:17.331Z,42.50
2022-08-24T20:44:45.593Z,42.51
2022-08-24T20:47:12.733Z,42.53
2022-08-24T20:49:39.487Z,42.52
2022-08-24T20:52:07.072Z,43.23
2022-08-24T20:54:37.687Z,42.80
2022-08-24T20:57:07.831Z,42.96
2022-08-24T20:59:34.587Z,43.10
2022-08-24T21:02:01.913Z,42.48
2022-08-24T21:04:29.674Z,44.15
2022-08-24T21:06:56.242Z,44.29
2022-08-24T21:09:22.467Z,44.08
2022-08-24T21:11:48.745Z,43.78
2022-08-24T21:14:14.569Z,43.50
2022-08-24T21:16:42.721Z,43.67
2022-08-24T21:19:10.964Z,43.76
2022-08-24T21:21:40.604Z,42.85
2022-08-24T21:24:08.401Z,43.11
2022-08-24T21:26:34.324Z,42.19
2022-08-24T21:29:06.428Z,42.72
2022-08-24T21:31:32.663Z,41.95
2022-08-24T21:34:17.224Z,42.05
2022-08-24T21:36:44.064Z,41.89
2022-08-24T21:39:11.079Z,41.87
2022-08-24T21:41:37.768Z,42.09
2022-08-24T21:44:03.737Z,42.13
2022-08-24T21:46:35.478Z,42.20
2022-08-24T21:49:02.870Z,42.31
2022-08-24T21:51:29.212Z,43.14
2022-08-24T21:53:59.842Z,42.79
2022-08-24T21:56:28.327Z,42.13
2022-08-24T21:58:54.249Z,42.30
2022-08-24T22:01:20.570Z,42.26
2022-08-24T22:03:46.521Z,42.38
2022-08-24T22:06:12.907Z,42.76
2022-08-24T22:08:41.822Z,42.58
2022-08-24T22:11:09.110Z,42.93
2022-08-24T22:13:35.347Z,42.78
2022-08-24T22:16:02.337Z,43.69
2022-08-24T22:18:29.110Z,43.47
2022-08-24T22:20:55.239Z,43.63
2022-08-24T22:23:23.379Z,43.71
2022-08-24T22:25:50.463Z,44.04
2022-08-24T22:28:17.040Z,43.20
2022-08-24T22:30:47.193Z,43.77
2022-08-24T22:33:15.123Z,43.78
2022-08-24T22:35:42.451Z,43.49
2022-08-24T22:38:11.074Z,43.33
2022-08-24T22:40:37.023Z,43.61
2022-08-24T22:43:03.915Z,43.53
2022-08-24T22:45:29.848Z,43.16
2022-08-24T22:47:55.684Z,43.33
2022-08-24T22:50:21.490Z,43.48
2022-08-24T22:52:47.336Z,43.65
2022-08-24T22:55:13.159Z,43.28
2022-08-24T22:57:38.967Z,42.98
2022-08-24T23:00:09.200Z,43.29
2022-08-24T23:02:37.012Z,43.31
2022-08-24T23:05:03.347Z,43.41
2022-08-24T23:07:29.229Z,44.07
2022-08-24T23:09:55.278Z,43.99
2022-08-24T23:12:23.392Z,43.62
2022-08-24T23:14:53.668Z,43.88
2022-08-24T23:17:21.171Z,44.67
2022-08-24T23:19:59.713Z,44.56
2022-08-24T23:22:28.224Z,43.89
2022-08-24T23:24:54.433Z,43.69
2022-08-24T23:27:20.932Z,44.18
2022-08-24T23:29:47.802Z,44.22
2022-08-24T23:32:17.935Z,44.25
2022-08-24T23:34:47.939Z,44.50
2022-08-24T23:37:17.817Z,44.19
2022-08-24T23:39:44.191Z,44.09
2022-08-24T23:42:10.564Z,44.05
2022-08-24T23:44:36.489Z,44.22
2022-08-24T23:47:02.723Z,44.66
2022-08-24T23:49:29.603Z,44.38
2022-08-24T23:51:56.477Z,45.12
2022-08-24T23:54:23.398Z,45.46
2022-08-24T23:56:52.024Z,44.85
2022-08-24T23:59:23.778Z,44.79
